sensor_id;sensor_type;location;lat;lon;timestamp;pressure;altitude;pressure_sealevel;temperature
1532;BMP280;759;53.170;8.210;2022-12-18T00:00:26;101762.88;;;-4.22
1532;BMP280;759;53.170;8.210;2022-12-18T00:02:51;101770.44;;;-4.21
1532;BMP280;759;53.170;8.210;2022-12-18T00:05:16;101761.28;;;-4.24
1532;BMP280;759;53.170;8.210;2022-12-18T00:07:41;101756.84;;;-4.23
1532;BMP280;759;53.170;8.210;2022-12-18T00:10:06;101749.59;;;-4.16
1532;BMP280;759;53.170;8.210;2022-12-18T00:12:32;101748.84;;;-4.11
1532;BMP280;759;53.170;8.210;2022-12-18T00:14:57;101750.91;;;-4.08
1532;BMP280;759;53.170;8.210;2022-12-18T00:17:22;101753.31;;;-4.01
1532;BMP280;759;53.170;8.210;2022-12-18T00:19:47;101748.63;;;-3.99
1532;BMP280;759;53.170;8.210;2022-12-18T00:22:13;101754.34;;;-4.02
1532;BMP280;759;53.170;8.210;2022-12-18T00:24:38;101750.13;;;-4.19
1532;BMP280;759;53.170;8.210;2022-12-18T00:27:03;101758.75;;;-4.18
1532;BMP280;759;53.170;8.210;2022-12-18T00:29:28;101752.41;;;-4.28
1532;BMP280;759;53.170;8.210;2022-12-18T00:31:53;101747.66;;;-4.31
1532;BMP280;759;53.170;8.210;2022-12-18T00:34:19;101740.84;;;-4.37
1532;BMP280;759;53.170;8.210;2022-12-18T00:36:44;101736.88;;;-4.45
1532;BMP280;759;53.170;8.210;2022-12-18T00:39:09;101739.47;;;-4.45
1532;BMP280;759;53.170;8.210;2022-12-18T00:41:35;101749.41;;;-4.47
1532;BMP280;759;53.170;8.210;2022-12-18T00:44:19;101737.38;;;-4.48
1532;BMP280;759;53.170;8.210;2022-12-18T00:46:45;101743.91;;;-4.50
1532;BMP280;759;53.170;8.210;2022-12-18T00:49:10;101744.97;;;-4.51
1532;BMP280;759;53.170;8.210;2022-12-18T00:51:35;101745.91;;;-4.63
1532;BMP280;759;53.170;8.210;2022-12-18T00:54:00;101747.00;;;-4.58
1532;BMP280;759;53.170;8.210;2022-12-18T00:56:26;101750.19;;;-4.46
1532;BMP280;759;53.170;8.210;2022-12-18T00:58:51;101750.72;;;-4.49
1532;BMP280;759;53.170;8.210;2022-12-18T01:01:16;101753.50;;;-4.61
1532;BMP280;759;53.170;8.210;2022-12-18T01:03:41;101752.84;;;-4.78
1532;BMP280;759;53.170;8.210;2022-12-18T01:06:07;101758.28;;;-4.85
1532;BMP280;759;53.170;8.210;2022-12-18T01:08:33;101758.72;;;-4.93
1532;BMP280;759;53.170;8.210;2022-12-18T01:10:58;101761.34;;;-4.93
1532;BMP280;759;53.170;8.210;2022-12-18T01:13:23;101759.53;;;-4.93
1532;BMP280;759;53.170;8.210;2022-12-18T01:15:49;101758.72;;;-4.93
1532;BMP280;759;53.170;8.210;2022-12-18T01:18:14;101758.16;;;-5.01
1532;BMP280;759;53.170;8.210;2022-12-18T01:20:39;101762.69;;;-5.18
1532;BMP280;759;53.170;8.210;2022-12-18T01:23:04;101758.19;;;-5.23
1532;BMP280;759;53.170;8.210;2022-12-18T01:25:29;101766.28;;;-5.24
1532;BMP280;759;53.170;8.210;2022-12-18T01:27:54;101765.09;;;-5.39
1532;BMP280;759;53.170;8.210;2022-12-18T01:30:20;101775.47;;;-5.44
1532;BMP280;759;53.170;8.210;2022-12-18T01:32:45;101775.00;;;-5.41
1532;BMP280;759;53.170;8.210;2022-12-18T01:35:10;101772.75;;;-5.54
1532;BMP280;759;53.170;8.210;2022-12-18T01:37:35;101779.03;;;-5.50
1532;BMP280;759;53.170;8.210;2022-12-18T01:40:00;101783.28;;;-5.44
1532;BMP280;759;53.170;8.210;2022-12-18T01:42:26;101769.88;;;-5.52
1532;BMP280;759;53.170;8.210;2022-12-18T01:47:24;101779.81;;;-5.49
1532;BMP280;759;53.170;8.210;2022-12-18T01:49:49;101785.84;;;-5.49
1532;BMP280;759;53.170;8.210;2022-12-18T01:52:15;101795.16;;;-5.53
1532;BMP280;759;53.170;8.210;2022-12-18T01:54:41;101795.63;;;-5.61
1532;BMP280;759;53.170;8.210;2022-12-18T01:57:06;101787.34;;;-5.53
1532;BMP280;759;53.170;8.210;2022-12-18T01:59:32;101787.81;;;-5.61
1532;BMP280;759;53.170;8.210;2022-12-18T02:01:58;101795.88;;;-5.63
1532;BMP280;759;53.170;8.210;2022-12-18T02:04:25;101801.31;;;-5.64
1532;BMP280;759;53.170;8.210;2022-12-18T02:06:52;101799.00;;;-5.61
1532;BMP280;759;53.170;8.210;2022-12-18T02:09:20;101800.72;;;-5.71
1532;BMP280;759;53.170;8.210;2022-12-18T02:11:53;101795.09;;;-5.63
1532;BMP280;759;53.170;8.210;2022-12-18T02:14:35;101797.53;;;-5.73
1532;BMP280;759;53.170;8.210;2022-12-18T02:27:04;101786.44;;;-5.86
1532;BMP280;759;53.170;8.210;2022-12-18T02:29:32;101789.78;;;-5.90
1532;BMP280;759;53.170;8.210;2022-12-18T02:31:58;101780.53;;;-5.98
1532;BMP280;759;53.170;8.210;2022-12-18T02:34:26;101786.25;;;-6.01
1532;BMP280;759;53.170;8.210;2022-12-18T02:36:52;101783.09;;;-6.03
1532;BMP280;759;53.170;8.210;2022-12-18T02:39:18;101773.03;;;-6.12
1532;BMP280;759;53.170;8.210;2022-12-18T02:41:45;101766.19;;;-6.18
1532;BMP280;759;53.170;8.210;2022-12-18T02:44:12;101771.38;;;-6.23
1532;BMP280;759;53.170;8.210;2022-12-18T02:46:39;101767.47;;;-6.20
1532;BMP280;759;53.170;8.210;2022-12-18T02:49:14;101763.75;;;-6.24
1532;BMP280;759;53.170;8.210;2022-12-18T02:54:13;101773.38;;;-6.25
1532;BMP280;759;53.170;8.210;2022-12-18T02:56:45;101780.66;;;-6.27
1532;BMP280;759;53.170;8.210;2022-12-18T02:59:17;101770.22;;;-6.27
1532;BMP280;759;53.170;8.210;2022-12-18T03:04:20;101765.00;;;-6.27
1532;BMP280;759;53.170;8.210;2022-12-18T03:06:47;101760.22;;;-6.35
1532;BMP280;759;53.170;8.210;2022-12-18T03:09:26;101762.50;;;-6.22
1532;BMP280;759;53.170;8.210;2022-12-18T03:11:58;101755.75;;;-6.23
1532;BMP280;759;53.170;8.210;2022-12-18T03:14:43;101743.00;;;-6.19
1532;BMP280;759;53.170;8.210;2022-12-18T03:17:11;101750.34;;;-6.33
1532;BMP280;759;53.170;8.210;2022-12-18T03:19:38;101753.03;;;-6.28
1532;BMP280;759;53.170;8.210;2022-12-18T03:22:04;101755.03;;;-6.35
1532;BMP280;759;53.170;8.210;2022-12-18T03:24:30;101765.34;;;-6.23
1532;BMP280;759;53.170;8.210;2022-12-18T03:27:06;101766.38;;;-6.24
1532;BMP280;759;53.170;8.210;2022-12-18T03:29:35;101773.72;;;-6.21
1532;BMP280;759;53.170;8.210;2022-12-18T03:32:10;101774.41;;;-6.26
1532;BMP280;759;53.170;8.210;2022-12-18T03:34:37;101780.09;;;-6.29
1532;BMP280;759;53.170;8.210;2022-12-18T03:37:03;101775.44;;;-6.27
1532;BMP280;759;53.170;8.210;2022-12-18T03:39:29;101775.44;;;-6.27
1532;BMP280;759;53.170;8.210;2022-12-18T03:47:16;101766.94;;;-6.39
1532;BMP280;759;53.170;8.210;2022-12-18T03:49:49;101766.63;;;-6.43
1532;BMP280;759;53.170;8.210;2022-12-18T03:52:18;101775.72;;;-6.45
1532;BMP280;759;53.170;8.210;2022-12-18T03:54:45;101768.69;;;-6.62
1532;BMP280;759;53.170;8.210;2022-12-18T03:57:12;101766.38;;;-6.58
1532;BMP280;759;53.170;8.210;2022-12-18T03:59:38;101756.13;;;-6.65
1532;BMP280;759;53.170;8.210;2022-12-18T04:02:04;101757.63;;;-6.52
1532;BMP280;759;53.170;8.210;2022-12-18T04:04:29;101763.47;;;-6.62
1532;BMP280;759;53.170;8.210;2022-12-18T04:06:55;101764.88;;;-6.71
1532;BMP280;759;53.170;8.210;2022-12-18T04:09:22;101766.06;;;-6.62
1532;BMP280;759;53.170;8.210;2022-12-18T04:11:47;101768.34;;;-6.65
1532;BMP280;759;53.170;8.210;2022-12-18T04:14:13;101770.28;;;-6.61
1532;BMP280;759;53.170;8.210;2022-12-18T04:16:38;101766.53;;;-6.65
1532;BMP280;759;53.170;8.210;2022-12-18T04:19:04;101763.53;;;-6.57
1532;BMP280;759;53.170;8.210;2022-12-18T04:21:29;101760.63;;;-6.60
1532;BMP280;759;53.170;8.210;2022-12-18T04:23:54;101759.75;;;-6.66
1532;BMP280;759;53.170;8.210;2022-12-18T04:26:19;101757.25;;;-6.61
1532;BMP280;759;53.170;8.210;2022-12-18T04:28:45;101759.34;;;-6.75
1532;BMP280;759;53.170;8.210;2022-12-18T04:31:10;101760.28;;;-6.81
1532;BMP280;759;53.170;8.210;2022-12-18T04:33:35;101766.69;;;-6.89
1532;BMP280;759;53.170;8.210;2022-12-18T04:36:00;101766.44;;;-6.87
1532;BMP280;759;53.170;8.210;2022-12-18T04:38:26;101767.84;;;-6.79
1532;BMP280;759;53.170;8.210;2022-12-18T04:40:51;101774.03;;;-6.69
1532;BMP280;759;53.170;8.210;2022-12-18T04:43:16;101782.16;;;-6.65
1532;BMP280;759;53.170;8.210;2022-12-18T04:45:41;101783.31;;;-6.73
1532;BMP280;759;53.170;8.210;2022-12-18T04:48:07;101776.69;;;-6.80
1532;BMP280;759;53.170;8.210;2022-12-18T04:50:32;101763.63;;;-6.85
1532;BMP280;759;53.170;8.210;2022-12-18T04:52:57;101773.63;;;-6.77
1532;BMP280;759;53.170;8.210;2022-12-18T04:55:22;101747.25;;;-6.98
1532;BMP280;759;53.170;8.210;2022-12-18T04:57:49;101772.50;;;-6.81
1532;BMP280;759;53.170;8.210;2022-12-18T05:00:14;101769.53;;;-6.73
1532;BMP280;759;53.170;8.210;2022-12-18T05:02:39;101782.63;;;-6.68
1532;BMP280;759;53.170;8.210;2022-12-18T05:05:05;101786.81;;;-6.50
1532;BMP280;759;53.170;8.210;2022-12-18T05:07:30;101785.47;;;-6.53
1532;BMP280;759;53.170;8.210;2022-12-18T05:09:55;101788.38;;;-6.66
1532;BMP280;759;53.170;8.210;2022-12-18T05:12:20;101797.41;;;-6.57
1532;BMP280;759;53.170;8.210;2022-12-18T05:14:46;101798.97;;;-6.56
1532;BMP280;759;53.170;8.210;2022-12-18T05:17:11;101804.66;;;-6.59
1532;BMP280;759;53.170;8.210;2022-12-18T05:19:36;101797.78;;;-6.65
1532;BMP280;759;53.170;8.210;2022-12-18T05:22:01;101795.25;;;-6.60
1532;BMP280;759;53.170;8.210;2022-12-18T05:24:26;101789.44;;;-6.50
1532;BMP280;759;53.170;8.210;2022-12-18T05:26:52;101787.75;;;-6.56
1532;BMP280;759;53.170;8.210;2022-12-18T05:29:17;101795.34;;;-6.55
1532;BMP280;759;53.170;8.210;2022-12-18T05:31:42;101795.81;;;-6.58
1532;BMP280;759;53.170;8.210;2022-12-18T05:34:13;101796.47;;;-6.51
1532;BMP280;759;53.170;8.210;2022-12-18T05:36:38;101797.31;;;-6.45
1532;BMP280;759;53.170;8.210;2022-12-18T05:39:04;101802.44;;;-6.50
1532;BMP280;759;53.170;8.210;2022-12-18T05:41:29;101795.50;;;-6.44
1532;BMP280;759;53.170;8.210;2022-12-18T05:43:54;101792.66;;;-6.43
1532;BMP280;759;53.170;8.210;2022-12-18T05:46:19;101793.94;;;-6.45
1532;BMP280;759;53.170;8.210;2022-12-18T05:48:45;101789.91;;;-6.53
1532;BMP280;759;53.170;8.210;2022-12-18T05:51:11;101799.94;;;-6.45
1532;BMP280;759;53.170;8.210;2022-12-18T05:53:36;101789.97;;;-6.48
1532;BMP280;759;53.170;8.210;2022-12-18T05:56:06;101797.09;;;-6.43
1532;BMP280;759;53.170;8.210;2022-12-18T05:58:32;101799.63;;;-6.48
1532;BMP280;759;53.170;8.210;2022-12-18T06:00:58;101800.84;;;-6.68
1532;BMP280;759;53.170;8.210;2022-12-18T06:03:30;101799.19;;;-6.40
1532;BMP280;759;53.170;8.210;2022-12-18T06:06:12;101802.94;;;-6.36
1532;BMP280;759;53.170;8.210;2022-12-18T06:08:37;101796.91;;;-6.54
1532;BMP280;759;53.170;8.210;2022-12-18T06:11:02;101798.41;;;-6.58
1532;BMP280;759;53.170;8.210;2022-12-18T06:13:27;101800.00;;;-6.57
1532;BMP280;759;53.170;8.210;2022-12-18T06:15:52;101802.09;;;-6.54
1532;BMP280;759;53.170;8.210;2022-12-18T06:18:18;101809.00;;;-6.47
1532;BMP280;759;53.170;8.210;2022-12-18T06:20:43;101815.47;;;-6.50
1532;BMP280;759;53.170;8.210;2022-12-18T06:23:08;101805.69;;;-6.60
1532;BMP280;759;53.170;8.210;2022-12-18T06:25:36;101811.13;;;-6.61
1532;BMP280;759;53.170;8.210;2022-12-18T06:28:01;101803.56;;;-6.63
1532;BMP280;759;53.170;8.210;2022-12-18T06:30:26;101808.66;;;-6.68
1532;BMP280;759;53.170;8.210;2022-12-18T06:32:52;101801.63;;;-6.68
1532;BMP280;759;53.170;8.210;2022-12-18T06:35:17;101812.44;;;-6.76
1532;BMP280;759;53.170;8.210;2022-12-18T06:37:42;101802.34;;;-6.72
1532;BMP280;759;53.170;8.210;2022-12-18T06:40:08;101804.47;;;-6.69
1532;BMP280;759;53.170;8.210;2022-12-18T06:42:33;101804.28;;;-6.79
1532;BMP280;759;53.170;8.210;2022-12-18T06:44:58;101816.13;;;-6.89
1532;BMP280;759;53.170;8.210;2022-12-18T06:47:24;101811.47;;;-6.87
1532;BMP280;759;53.170;8.210;2022-12-18T06:49:49;101807.56;;;-6.72
1532;BMP280;759;53.170;8.210;2022-12-18T06:52:14;101816.47;;;-6.68
1532;BMP280;759;53.170;8.210;2022-12-18T06:54:40;101819.06;;;-6.68
1532;BMP280;759;53.170;8.210;2022-12-18T06:57:05;101819.63;;;-6.66
1532;BMP280;759;53.170;8.210;2022-12-18T06:59:30;101821.22;;;-6.65
1532;BMP280;759;53.170;8.210;2022-12-18T07:01:56;101832.44;;;-6.64
1532;BMP280;759;53.170;8.210;2022-12-18T07:04:21;101824.69;;;-6.59
1532;BMP280;759;53.170;8.210;2022-12-18T07:06:46;101825.97;;;-6.62
1532;BMP280;759;53.170;8.210;2022-12-18T07:09:11;101830.94;;;-6.60
1532;BMP280;759;53.170;8.210;2022-12-18T07:11:36;101824.81;;;-6.66
1532;BMP280;759;53.170;8.210;2022-12-18T07:14:02;101822.34;;;-6.61
1532;BMP280;759;53.170;8.210;2022-12-18T07:16:27;101825.00;;;-6.56
1532;BMP280;759;53.170;8.210;2022-12-18T07:18:55;101821.38;;;-6.55
1532;BMP280;759;53.170;8.210;2022-12-18T07:21:21;101812.88;;;-6.50
1532;BMP280;759;53.170;8.210;2022-12-18T07:23:46;101810.56;;;-6.63
1532;BMP280;759;53.170;8.210;2022-12-18T07:26:13;101815.00;;;-6.64
1532;BMP280;759;53.170;8.210;2022-12-18T07:28:38;101816.63;;;-6.58
1532;BMP280;759;53.170;8.210;2022-12-18T07:31:05;101819.47;;;-6.59
1532;BMP280;759;53.170;8.210;2022-12-18T07:33:31;101816.31;;;-6.61
1532;BMP280;759;53.170;8.210;2022-12-18T07:35:58;101818.22;;;-6.57
1532;BMP280;759;53.170;8.210;2022-12-18T07:38:24;101820.34;;;-6.54
1532;BMP280;759;53.170;8.210;2022-12-18T07:40:49;101813.63;;;-6.66
1532;BMP280;759;53.170;8.210;2022-12-18T07:43:14;101808.72;;;-6.80
1532;BMP280;759;53.170;8.210;2022-12-18T07:45:40;101803.69;;;-6.70
1532;BMP280;759;53.170;8.210;2022-12-18T07:48:05;101806.28;;;-6.70
1532;BMP280;759;53.170;8.210;2022-12-18T07:50:30;101802.41;;;-6.67
1532;BMP280;759;53.170;8.210;2022-12-18T07:52:55;101810.34;;;-6.62
1532;BMP280;759;53.170;8.210;2022-12-18T07:55:20;101805.53;;;-6.53
1532;BMP280;759;53.170;8.210;2022-12-18T07:57:46;101809.25;;;-6.49
1532;BMP280;759;53.170;8.210;2022-12-18T08:00:11;101808.91;;;-6.53
1532;BMP280;759;53.170;8.210;2022-12-18T08:02:37;101806.22;;;-6.58
1532;BMP280;759;53.170;8.210;2022-12-18T08:05:02;101814.78;;;-6.45
1532;BMP280;759;53.170;8.210;2022-12-18T08:07:27;101799.84;;;-6.50
1532;BMP280;759;53.170;8.210;2022-12-18T08:09:53;101803.63;;;-6.41
1532;BMP280;759;53.170;8.210;2022-12-18T08:12:18;101808.75;;;-6.29
1532;BMP280;759;53.170;8.210;2022-12-18T08:14:43;101815.78;;;-6.13
1532;BMP280;759;53.170;8.210;2022-12-18T08:17:09;101814.41;;;-5.98
1532;BMP280;759;53.170;8.210;2022-12-18T08:19:34;101814.56;;;-5.88
1532;BMP280;759;53.170;8.210;2022-12-18T08:22:00;101811.56;;;-5.97
1532;BMP280;759;53.170;8.210;2022-12-18T08:24:25;101810.44;;;-5.84
1532;BMP280;759;53.170;8.210;2022-12-18T08:26:50;101811.84;;;-5.76
1532;BMP280;759;53.170;8.210;2022-12-18T08:29:16;101816.50;;;-5.61
1532;BMP280;759;53.170;8.210;2022-12-18T08:31:42;101813.44;;;-5.53
1532;BMP280;759;53.170;8.210;2022-12-18T08:34:08;101806.78;;;-5.44
1532;BMP280;759;53.170;8.210;2022-12-18T08:36:33;101810.91;;;-5.48
1532;BMP280;759;53.170;8.210;2022-12-18T08:38:58;101806.94;;;-5.28
1532;BMP280;759;53.170;8.210;2022-12-18T08:41:23;101816.94;;;-5.20
1532;BMP280;759;53.170;8.210;2022-12-18T08:43:49;101813.84;;;-5.17
1532;BMP280;759;53.170;8.210;2022-12-18T08:46:37;101815.75;;;-5.12
1532;BMP280;759;53.170;8.210;2022-12-18T08:49:03;101815.03;;;-5.03
1532;BMP280;759;53.170;8.210;2022-12-18T08:51:28;101824.50;;;-4.96
1532;BMP280;759;53.170;8.210;2022-12-18T08:53:53;101816.22;;;-4.88
1532;BMP280;759;53.170;8.210;2022-12-18T08:56:19;101825.66;;;-4.82
1532;BMP280;759;53.170;8.210;2022-12-18T08:58:44;101825.00;;;-4.72
1532;BMP280;759;53.170;8.210;2022-12-18T09:01:10;101835.81;;;-4.58
1532;BMP280;759;53.170;8.210;2022-12-18T09:03:36;101843.16;;;-4.50
1532;BMP280;759;53.170;8.210;2022-12-18T09:06:01;101856.28;;;-4.45
1532;BMP280;759;53.170;8.210;2022-12-18T09:08:27;101859.28;;;-4.26
1532;BMP280;759;53.170;8.210;2022-12-18T09:10:53;101868.59;;;-4.03
1532;BMP280;759;53.170;8.210;2022-12-18T09:13:18;101865.66;;;-4.12
1532;BMP280;759;53.170;8.210;2022-12-18T09:15:45;101865.91;;;-4.18
1532;BMP280;759;53.170;8.210;2022-12-18T09:18:11;101868.59;;;-4.03
1532;BMP280;759;53.170;8.210;2022-12-18T09:20:37;101852.38;;;-4.05
1532;BMP280;759;53.170;8.210;2022-12-18T09:23:03;101844.00;;;-4.02
1532;BMP280;759;53.170;8.210;2022-12-18T09:25:28;101852.41;;;-4.00
1532;BMP280;759;53.170;8.210;2022-12-18T09:27:57;101866.03;;;-3.98
1532;BMP280;759;53.170;8.210;2022-12-18T09:30:23;101862.88;;;-4.00
1532;BMP280;759;53.170;8.210;2022-12-18T09:32:48;101861.06;;;-3.99
1532;BMP280;759;53.170;8.210;2022-12-18T09:35:13;101853.78;;;-3.92
1532;BMP280;759;53.170;8.210;2022-12-18T09:37:38;101851.47;;;-3.78
1532;BMP280;759;53.170;8.210;2022-12-18T09:40:03;101849.63;;;-3.78
1532;BMP280;759;53.170;8.210;2022-12-18T09:42:29;101871.16;;;-3.71
1532;BMP280;759;53.170;8.210;2022-12-18T09:44:54;101875.06;;;-3.73
1532;BMP280;759;53.170;8.210;2022-12-18T09:47:21;101876.63;;;-3.72
1532;BMP280;759;53.170;8.210;2022-12-18T09:49:56;101870.91;;;-3.64
1532;BMP280;759;53.170;8.210;2022-12-18T09:52:33;101864.63;;;-3.68
1532;BMP280;759;53.170;8.210;2022-12-18T09:58:04;101864.94;;;-3.54
1532;BMP280;759;53.170;8.210;2022-12-18T10:00:31;101872.84;;;-3.39
1532;BMP280;759;53.170;8.210;2022-12-18T10:03:00;101870.75;;;-3.37
1532;BMP280;759;53.170;8.210;2022-12-18T10:08:02;101868.97;;;-3.11
1532;BMP280;759;53.170;8.210;2022-12-18T10:10:43;101865.34;;;-3.20
1532;BMP280;759;53.170;8.210;2022-12-18T10:13:46;101857.47;;;-3.15
1532;BMP280;759;53.170;8.210;2022-12-18T10:18:59;101844.91;;;-3.13
1532;BMP280;759;53.170;8.210;2022-12-18T10:21:30;101845.97;;;-3.08
1532;BMP280;759;53.170;8.210;2022-12-18T10:26:22;101834.72;;;-2.99
1532;BMP280;759;53.170;8.210;2022-12-18T10:28:48;101830.03;;;-2.97
1532;BMP280;759;53.170;8.210;2022-12-18T10:31:17;101828.44;;;-2.93
1532;BMP280;759;53.170;8.210;2022-12-18T10:33:42;101827.66;;;-2.83
1532;BMP280;759;53.170;8.210;2022-12-18T10:36:08;101834.47;;;-2.77
1532;BMP280;759;53.170;8.210;2022-12-18T10:38:33;101831.06;;;-2.77
1532;BMP280;759;53.170;8.210;2022-12-18T10:41:00;101829.75;;;-2.69
1532;BMP280;759;53.170;8.210;2022-12-18T10:43:30;101821.63;;;-2.58
1532;BMP280;759;53.170;8.210;2022-12-18T10:48:26;101809.56;;;-2.43
1532;BMP280;759;53.170;8.210;2022-12-18T10:50:52;101816.88;;;-2.40
1532;BMP280;759;53.170;8.210;2022-12-18T10:53:20;101826.56;;;-2.30
1532;BMP280;759;53.170;8.210;2022-12-18T10:55:46;101817.41;;;-2.28
1532;BMP280;759;53.170;8.210;2022-12-18T10:58:16;101816.31;;;-2.17
1532;BMP280;759;53.170;8.210;2022-12-18T11:00:42;101812.38;;;-2.14
1532;BMP280;759;53.170;8.210;2022-12-18T11:03:28;101800.78;;;-2.03
1532;BMP280;759;53.170;8.210;2022-12-18T11:08:31;101802.31;;;-1.91
1532;BMP280;759;53.170;8.210;2022-12-18T11:10:56;101801.97;;;-1.69
1532;BMP280;759;53.170;8.210;2022-12-18T11:13:22;101805.41;;;-1.74
1532;BMP280;759;53.170;8.210;2022-12-18T11:15:48;101795.22;;;-1.81
1532;BMP280;759;53.170;8.210;2022-12-18T11:18:16;101803.19;;;-1.57
1532;BMP280;759;53.170;8.210;2022-12-18T11:20:41;101794.00;;;-1.54
1532;BMP280;759;53.170;8.210;2022-12-18T11:23:10;101790.00;;;-1.46
1532;BMP280;759;53.170;8.210;2022-12-18T11:25:37;101791.03;;;-1.42
1532;BMP280;759;53.170;8.210;2022-12-18T11:28:04;101790.97;;;-1.32
1532;BMP280;759;53.170;8.210;2022-12-18T11:30:31;101789.88;;;-1.26
1532;BMP280;759;53.170;8.210;2022-12-18T11:33:06;101781.00;;;-1.30
1532;BMP280;759;53.170;8.210;2022-12-18T11:38:02;101768.59;;;-1.24
1532;BMP280;759;53.170;8.210;2022-12-18T11:40:33;101771.94;;;-1.13
1532;BMP280;759;53.170;8.210;2022-12-18T11:45:47;101755.78;;;-0.96
1532;BMP280;759;53.170;8.210;2022-12-18T11:48:16;101751.53;;;-0.92
1532;BMP280;759;53.170;8.210;2022-12-18T11:50:52;101748.63;;;-0.91
1532;BMP280;759;53.170;8.210;2022-12-18T11:53:18;101741.97;;;-1.12
1532;BMP280;759;53.170;8.210;2022-12-18T11:55:49;101748.56;;;-1.15
1532;BMP280;759;53.170;8.210;2022-12-18T12:00:49;101739.41;;;-1.18
1532;BMP280;759;53.170;8.210;2022-12-18T12:03:24;101732.66;;;-1.29
1532;BMP280;759;53.170;8.210;2022-12-18T12:06:01;101726.66;;;-1.29
1532;BMP280;759;53.170;8.210;2022-12-18T12:16:20;101715.66;;;-1.42
1532;BMP280;759;53.170;8.210;2022-12-18T12:19:00;101718.16;;;-1.56
1532;BMP280;759;53.170;8.210;2022-12-18T12:21:35;101724.41;;;-1.51
1532;BMP280;759;53.170;8.210;2022-12-18T12:24:10;101704.44;;;-1.47
1532;BMP280;759;53.170;8.210;2022-12-18T12:35:07;101705.78;;;-1.50
1532;BMP280;759;53.170;8.210;2022-12-18T12:40:33;101686.06;;;-1.47
1532;BMP280;759;53.170;8.210;2022-12-18T12:43:04;101680.78;;;-1.42
1532;BMP280;759;53.170;8.210;2022-12-18T12:45:46;101681.78;;;-1.38
1532;BMP280;759;53.170;8.210;2022-12-18T12:48:26;101674.66;;;-1.32
1532;BMP280;759;53.170;8.210;2022-12-18T12:50:53;101662.88;;;-1.35
1532;BMP280;759;53.170;8.210;2022-12-18T12:53:23;101664.41;;;-1.29
1532;BMP280;759;53.170;8.210;2022-12-18T12:55:50;101664.44;;;-1.39
1532;BMP280;759;53.170;8.210;2022-12-18T12:58:19;101673.91;;;-1.33
1532;BMP280;759;53.170;8.210;2022-12-18T13:00:56;101669.66;;;-1.29
1532;BMP280;759;53.170;8.210;2022-12-18T13:06:00;101653.41;;;-1.36
1532;BMP280;759;53.170;8.210;2022-12-18T13:08:29;101652.88;;;-1.33
1532;BMP280;759;53.170;8.210;2022-12-18T13:10:55;101643.94;;;-1.32
1532;BMP280;759;53.170;8.210;2022-12-18T13:13:51;101641.59;;;-1.33
1532;BMP280;759;53.170;8.210;2022-12-18T13:16:21;101628.50;;;-1.39
1532;BMP280;759;53.170;8.210;2022-12-18T13:18:51;101635.56;;;-1.39
1532;BMP280;759;53.170;8.210;2022-12-18T13:21:21;101630.84;;;-1.37
1532;BMP280;759;53.170;8.210;2022-12-18T13:23:48;101629.31;;;-1.43
1532;BMP280;759;53.170;8.210;2022-12-18T13:36:41;101616.25;;;-1.48
1532;BMP280;759;53.170;8.210;2022-12-18T13:41:41;101601.69;;;-1.65
1532;BMP280;759;53.170;8.210;2022-12-18T13:44:10;101590.19;;;-1.69
1532;BMP280;759;53.170;8.210;2022-12-18T13:46:43;101599.59;;;-1.68
1532;BMP280;759;53.170;8.210;2022-12-18T13:51:34;101598.59;;;-1.72
1532;BMP280;759;53.170;8.210;2022-12-18T13:54:01;101600.13;;;-1.66
1532;BMP280;759;53.170;8.210;2022-12-18T13:56:28;101598.59;;;-1.72
1532;BMP280;759;53.170;8.210;2022-12-18T13:59:04;101601.00;;;-1.76
1532;BMP280;759;53.170;8.210;2022-12-18T14:01:30;101588.19;;;-1.82
1532;BMP280;759;53.170;8.210;2022-12-18T14:04:11;101586.13;;;-1.85
1532;BMP280;759;53.170;8.210;2022-12-18T14:06:37;101580.09;;;-1.91
1532;BMP280;759;53.170;8.210;2022-12-18T14:09:02;101580.59;;;-1.89
1532;BMP280;759;53.170;8.210;2022-12-18T14:11:28;101578.25;;;-1.85
1532;BMP280;759;53.170;8.210;2022-12-18T14:13:54;101577.97;;;-1.89
1532;BMP280;759;53.170;8.210;2022-12-18T14:16:19;101574.63;;;-1.95
1532;BMP280;759;53.170;8.210;2022-12-18T14:18:45;101568.63;;;-2.00
1532;BMP280;759;53.170;8.210;2022-12-18T14:21:29;101563.16;;;-2.04
1532;BMP280;759;53.170;8.210;2022-12-18T14:24:05;101558.47;;;-2.07
1532;BMP280;759;53.170;8.210;2022-12-18T14:26:31;101552.16;;;-2.06
1532;BMP280;759;53.170;8.210;2022-12-18T14:28:58;101550.59;;;-2.07
1532;BMP280;759;53.170;8.210;2022-12-18T14:31:26;101556.63;;;-2.06
1532;BMP280;759;53.170;8.210;2022-12-18T14:33:52;101548.00;;;-2.12
1532;BMP280;759;53.170;8.210;2022-12-18T14:36:19;101557.19;;;-2.09
1532;BMP280;759;53.170;8.210;2022-12-18T14:38:47;101555.88;;;-2.12
1532;BMP280;759;53.170;8.210;2022-12-18T14:41:13;101544.13;;;-2.20
1532;BMP280;759;53.170;8.210;2022-12-18T14:43:40;101544.75;;;-2.28
1532;BMP280;759;53.170;8.210;2022-12-18T14:46:19;101540.03;;;-2.31
1532;BMP280;759;53.170;8.210;2022-12-18T14:48:50;101535.56;;;-2.30
1532;BMP280;759;53.170;8.210;2022-12-18T14:51:17;101537.69;;;-2.38
1532;BMP280;759;53.170;8.210;2022-12-18T14:53:43;101533.50;;;-2.39
1532;BMP280;759;53.170;8.210;2022-12-18T14:56:17;101526.66;;;-2.35
1532;BMP280;759;53.170;8.210;2022-12-18T14:58:46;101525.38;;;-2.37
1532;BMP280;759;53.170;8.210;2022-12-18T15:01:19;101514.88;;;-2.37
1532;BMP280;759;53.170;8.210;2022-12-18T15:03:44;101505.25;;;-2.42
1532;BMP280;759;53.170;8.210;2022-12-18T15:06:17;101508.31;;;-2.35
1532;BMP280;759;53.170;8.210;2022-12-18T15:08:43;101503.63;;;-2.38
1532;BMP280;759;53.170;8.210;2022-12-18T15:11:27;101505.97;;;-2.36
1532;BMP280;759;53.170;8.210;2022-12-18T15:13:53;101487.94;;;-2.43
1532;BMP280;759;53.170;8.210;2022-12-18T15:16:18;101486.56;;;-2.35
1532;BMP280;759;53.170;8.210;2022-12-18T15:18:43;101471.94;;;-2.41
1532;BMP280;759;53.170;8.210;2022-12-18T15:21:10;101467.16;;;-2.34
1532;BMP280;759;53.170;8.210;2022-12-18T15:23:51;101457.50;;;-2.39
1532;BMP280;759;53.170;8.210;2022-12-18T15:26:18;101455.66;;;-2.38
1532;BMP280;759;53.170;8.210;2022-12-18T15:33:59;101441.81;;;-2.44
1532;BMP280;759;53.170;8.210;2022-12-18T15:36:24;101438.13;;;-2.43
1532;BMP280;759;53.170;8.210;2022-12-18T15:38:50;101436.78;;;-2.40
1532;BMP280;759;53.170;8.210;2022-12-18T15:41:19;101444.88;;;-2.37
1532;BMP280;759;53.170;8.210;2022-12-18T15:43:45;101436.25;;;-2.37
1532;BMP280;759;53.170;8.210;2022-12-18T15:46:11;101441.22;;;-2.36
1532;BMP280;759;53.170;8.210;2022-12-18T15:48:40;101448.53;;;-2.33
1532;BMP280;759;53.170;8.210;2022-12-18T15:51:23;101453.25;;;-2.29
1532;BMP280;759;53.170;8.210;2022-12-18T15:53:50;101455.28;;;-2.21
1532;BMP280;759;53.170;8.210;2022-12-18T15:56:15;101458.72;;;-2.26
1532;BMP280;759;53.170;8.210;2022-12-18T15:58:59;101441.66;;;-2.23
1532;BMP280;759;53.170;8.210;2022-12-18T16:01:29;101435.88;;;-2.20
1532;BMP280;759;53.170;8.210;2022-12-18T16:03:54;101434.53;;;-2.18